createdAt,value
2022-12-11T00:01:30.845Z,-5.24
2022-12-11T00:03:57.450Z,-5.18
2022-12-11T00:06:24.127Z,-5.14
2022-12-11T00:08:55.042Z,-5.14
2022-12-11T00:11:23.231Z,-5.07
2022-12-11T00:13:49.792Z,-5.02
2022-12-11T00:16:16.784Z,-4.99
2022-12-11T00:18:43.548Z,-4.98
2022-12-11T00:21:14.288Z,-4.92
2022-12-11T00:23:41.708Z,-4.87
2022-12-11T00:26:12.963Z,-4.87
2022-12-11T00:28:39.639Z,-4.83
2022-12-11T00:31:09.070Z,-4.79
2022-12-11T00:33:35.664Z,-4.74
2022-12-11T00:36:02.254Z,-4.72
2022-12-11T00:38:28.791Z,-4.71
2022-12-11T00:40:59.825Z,-4.68
2022-12-11T00:43:26.255Z,-4.65
2022-12-11T00:45:52.960Z,-4.60
2022-12-11T00:48:19.831Z,-4.57
2022-12-11T00:50:47.007Z,-4.58
2022-12-11T00:53:13.843Z,-4.58
2022-12-11T00:55:42.579Z,-4.52
2022-12-11T00:58:10.483Z,-4.48
2022-12-11T01:00:37.750Z,-4.43
2022-12-11T01:03:04.947Z,-4.44
2022-12-11T01:05:32.194Z,-4.42
2022-12-11T01:07:59.029Z,-4.39
2022-12-11T01:10:25.961Z,-4.36
2022-12-11T01:12:59.111Z,-4.32
2022-12-11T01:15:29.143Z,-4.30
2022-12-11T01:17:56.025Z,-4.26
2022-12-11T01:20:23.629Z,-4.27
2022-12-11T01:22:54.019Z,-4.24
2022-12-11T01:25:21.207Z,-4.23
2022-12-11T01:27:51.353Z,-4.18
2022-12-11T01:30:18.542Z,-4.15
2022-12-11T01:32:45.099Z,-4.08
2022-12-11T01:35:12.574Z,-4.06
2022-12-11T01:37:39.815Z,-4.05
2022-12-11T01:40:09.765Z,-4.02
2022-12-11T01:42:36.303Z,-3.99
2022-12-11T01:45:38.954Z,-3.97
2022-12-11T01:48:12.698Z,-3.93
2022-12-11T01:50:44.235Z,-3.90
2022-12-11T01:53:13.833Z,-3.90
2022-12-11T01:55:41.199Z,-3.87
2022-12-11T01:58:08.759Z,-3.86
2022-12-11T02:00:35.466Z,-3.82
2022-12-11T02:03:02.050Z,-3.80
2022-12-11T02:05:28.650Z,-3.79
2022-12-11T02:07:58.873Z,-3.76
2022-12-11T02:10:44.410Z,-3.78
2022-12-11T02:13:21.693Z,-3.76
2022-12-11T02:16:00.986Z,-3.77
2022-12-11T02:18:38.918Z,-3.77
2022-12-11T02:21:27.944Z,-3.77
2022-12-11T02:24:03.578Z,-3.77
2022-12-11T02:26:40.264Z,-3.77
2022-12-11T02:29:12.362Z,-3.75
2022-12-11T02:31:45.213Z,-3.76
2022-12-11T02:34:34.985Z,-3.75
2022-12-11T02:37:05.787Z,-3.74
2022-12-11T02:39:35.855Z,-3.75
2022-12-11T02:42:04.087Z,-3.78
2022-12-11T02:44:34.025Z,-3.73
2022-12-11T02:47:01.925Z,-3.67
2022-12-11T02:49:30.374Z,-3.63
2022-12-11T02:51:59.231Z,-3.63
2022-12-11T02:54:30.476Z,-3.61
2022-12-11T02:57:04.861Z,-3.59
2022-12-11T02:59:38.473Z,-3.57
2022-12-11T03:02:05.658Z,-3.58
2022-12-11T03:04:35.247Z,-3.55
2022-12-11T03:07:17.220Z,-3.53
2022-12-11T03:09:46.560Z,-3.49
2022-12-11T03:12:18.686Z,-3.48
2022-12-11T03:14:45.774Z,-3.46
2022-12-11T03:17:21.272Z,-3.44
2022-12-11T03:20:00.285Z,-3.43
2022-12-11T03:22:33.726Z,-3.43
2022-12-11T03:25:02.658Z,-3.51
2022-12-11T03:28:06.819Z,-3.50
2022-12-11T03:30:36.970Z,-3.55
2022-12-11T03:33:11.994Z,-3.60
2022-12-11T03:35:45.477Z,-3.55
2022-12-11T03:38:18.758Z,-3.55
2022-12-11T03:40:49.635Z,-3.50
2022-12-11T03:43:17.779Z,-3.62
2022-12-11T03:45:47.259Z,-3.57
2022-12-11T03:48:16.785Z,-3.57
2022-12-11T03:50:43.912Z,-3.55
2022-12-11T03:53:10.913Z,-3.54
2022-12-11T03:55:39.617Z,-3.53
2022-12-11T03:58:06.533Z,-3.64
2022-12-11T04:00:33.272Z,-3.68
2022-12-11T04:03:15.879Z,-3.64
2022-12-11T04:05:50.403Z,-3.58
2022-12-11T04:08:20.682Z,-3.60
2022-12-11T04:10:48.022Z,-3.65
2022-12-11T04:13:14.702Z,-3.65
2022-12-11T04:15:41.355Z,-3.58
2022-12-11T04:18:27.094Z,-3.51
2022-12-11T04:21:13.324Z,-3.50
2022-12-11T04:23:58.563Z,-3.45
2022-12-11T04:26:25.358Z,-3.48
2022-12-11T04:28:51.934Z,-3.62
2022-12-11T04:31:21.601Z,-3.51
2022-12-11T04:33:48.786Z,-3.52
2022-12-11T04:36:16.084Z,-3.54
2022-12-11T04:38:42.669Z,-3.52
2022-12-11T04:41:13.310Z,-3.53
2022-12-11T04:43:40.071Z,-3.51
2022-12-11T04:46:10.051Z,-3.47
2022-12-11T04:48:38.401Z,-3.46
2022-12-11T04:51:05.677Z,-3.63
2022-12-11T04:53:32.775Z,-3.55
2022-12-11T04:55:59.437Z,-3.51
2022-12-11T04:58:26.617Z,-3.60
2022-12-11T05:00:53.726Z,-3.70
2022-12-11T05:03:20.789Z,-3.73
2022-12-11T05:05:49.377Z,-3.66
2022-12-11T05:08:16.465Z,-3.72
2022-12-11T05:10:48.554Z,-3.61
2022-12-11T05:13:16.559Z,-3.70
2022-12-11T05:15:43.135Z,-3.66
2022-12-11T05:18:09.811Z,-3.55
2022-12-11T05:20:36.371Z,-3.48
2022-12-11T05:23:03.111Z,-3.43
2022-12-11T05:25:29.702Z,-3.39
2022-12-11T05:27:56.321Z,-3.38
2022-12-11T05:30:22.879Z,-3.35
2022-12-11T05:32:49.449Z,-3.38
2022-12-11T05:35:16.151Z,-3.36
2022-12-11T05:37:42.715Z,-3.33
2022-12-11T05:40:10.146Z,-3.29
2022-12-11T05:42:36.707Z,-3.26
2022-12-11T05:45:03.534Z,-3.27
2022-12-11T05:47:31.442Z,-3.25
2022-12-11T05:49:58.014Z,-3.28
2022-12-11T05:52:24.575Z,-3.30
2022-12-11T05:54:51.071Z,-3.35
2022-12-11T05:57:17.681Z,-3.37
2022-12-11T05:59:45.262Z,-3.31
2022-12-11T06:02:11.898Z,-3.29
2022-12-11T06:04:38.574Z,-3.33
2022-12-11T06:07:05.164Z,-3.32
2022-12-11T06:09:31.687Z,-3.31
2022-12-11T06:11:58.237Z,-3.30
2022-12-11T06:14:24.757Z,-3.36
2022-12-11T06:16:51.482Z,-3.38
2022-12-11T06:19:18.557Z,-3.45
2022-12-11T06:21:45.822Z,-3.40
2022-12-11T06:24:12.870Z,-3.33
2022-12-11T06:26:39.473Z,-3.37
2022-12-11T06:29:11.038Z,-3.39
2022-12-11T06:31:39.719Z,-3.33
2022-12-11T06:34:06.339Z,-3.36
2022-12-11T06:36:32.911Z,-3.29
2022-12-11T06:38:59.472Z,-3.28
2022-12-11T06:41:26.027Z,-3.26
2022-12-11T06:43:52.690Z,-3.27
2022-12-11T06:46:20.265Z,-3.25
2022-12-11T06:48:48.101Z,-3.22
2022-12-11T06:51:18.216Z,-3.19
2022-12-11T06:53:45.714Z,-3.26
2022-12-11T06:56:14.649Z,-3.29
2022-12-11T06:58:42.838Z,-3.29
2022-12-11T07:01:25.652Z,-3.28
2022-12-11T07:03:57.250Z,-3.25
2022-12-11T07:06:24.833Z,-3.26
2022-12-11T07:08:51.836Z,-3.28
2022-12-11T07:11:20.367Z,-3.36
2022-12-11T07:13:47.863Z,-3.32
2022-12-11T07:16:16.428Z,-3.32
2022-12-11T07:18:47.147Z,-3.36
2022-12-11T07:21:14.260Z,-3.36
2022-12-11T07:23:41.226Z,-3.39
2022-12-11T07:26:11.317Z,-3.39
2022-12-11T07:28:38.151Z,-3.39
2022-12-11T07:31:17.009Z,-3.40
2022-12-11T07:33:43.987Z,-3.41
2022-12-11T07:36:12.428Z,-3.39
2022-12-11T07:38:39.642Z,-3.45
2022-12-11T07:41:09.190Z,-3.47
2022-12-11T07:43:36.462Z,-3.60
2022-12-11T07:46:05.041Z,-3.58
2022-12-11T07:48:32.175Z,-3.62
2022-12-11T07:51:32.259Z,-3.73
2022-12-11T07:54:01.393Z,-3.66
2022-12-11T07:56:29.820Z,-3.58
2022-12-11T07:58:58.905Z,-3.54
2022-12-11T08:01:27.884Z,-3.51
2022-12-11T08:03:55.293Z,-3.46
2022-12-11T08:06:29.986Z,-3.41
2022-12-11T08:08:57.733Z,-3.37
2022-12-11T08:11:25.170Z,-3.34
2022-12-11T08:13:51.779Z,-3.38
2022-12-11T08:16:19.200Z,-3.33
2022-12-11T08:18:47.510Z,-3.34
2022-12-11T08:21:26.494Z,-3.30
2022-12-11T08:23:54.338Z,-3.25
2022-12-11T08:26:26.821Z,-3.20
2022-12-11T08:28:53.792Z,-3.35
2022-12-11T08:31:20.993Z,-3.31
2022-12-11T08:33:48.652Z,-3.22
2022-12-11T08:36:18.774Z,-3.24
2022-12-11T08:38:46.709Z,-3.33
2022-12-11T08:41:16.701Z,-3.27
2022-12-11T08:43:44.212Z,-3.22
2022-12-11T08:46:12.250Z,-3.15
2022-12-11T08:48:40.679Z,-3.12
2022-12-11T08:51:11.109Z,-3.09
2022-12-11T08:53:38.918Z,-3.28
2022-12-11T08:56:08.511Z,-3.19
2022-12-11T08:58:35.755Z,-3.20
2022-12-11T09:01:10.845Z,-3.25
2022-12-11T09:03:38.321Z,-3.24
2022-12-11T09:06:10.731Z,-3.16
2022-12-11T09:08:38.222Z,-3.17
2022-12-11T09:11:06.869Z,-3.10
2022-12-11T09:13:33.825Z,-3.02
2022-12-11T09:16:00.870Z,-3.13
2022-12-11T09:18:27.514Z,-3.09
2022-12-11T09:21:06.058Z,-3.03
2022-12-11T09:23:32.750Z,-2.94
2022-12-11T09:25:59.420Z,-3.04
2022-12-11T09:28:26.407Z,-2.98
2022-12-11T09:30:52.992Z,-2.99
2022-12-11T09:33:19.571Z,-2.93
2022-12-11T09:35:46.269Z,-2.90
2022-12-11T09:38:12.852Z,-2.97
2022-12-11T09:40:43.478Z,-2.97
2022-12-11T09:43:27.102Z,-2.89
2022-12-11T09:45:55.205Z,-2.87
2022-12-11T09:48:25.759Z,-2.86
2022-12-11T09:50:55.143Z,-2.87
2022-12-11T09:53:35.827Z,-2.93
2022-12-11T09:56:33.829Z,-2.87
2022-12-11T09:59:27.413Z,-2.86
2022-12-11T10:02:29.535Z,-2.73
2022-12-11T10:05:02.078Z,-2.66
2022-12-11T10:07:55.088Z,-2.63
2022-12-11T10:10:36.898Z,-2.59
2022-12-11T10:13:14.263Z,-2.54
2022-12-11T10:15:56.819Z,-2.69
2022-12-11T10:18:27.735Z,-2.79
2022-12-11T10:20:56.682Z,-2.74
2022-12-11T10:23:56.911Z,-2.89
2022-12-11T10:26:23.894Z,-2.72
2022-12-11T10:28:50.871Z,-2.55
2022-12-11T10:31:32.155Z,-2.51
2022-12-11T10:34:13.493Z,-2.45
2022-12-11T10:36:42.398Z,-2.34
2022-12-11T10:39:15.627Z,-2.25
2022-12-11T10:41:44.755Z,-2.14
2022-12-11T10:44:27.850Z,-2.15
2022-12-11T10:47:09.612Z,-2.06
2022-12-11T10:49:38.439Z,-1.98
2022-12-11T10:52:18.499Z,-2.21
2022-12-11T10:54:48.874Z,-2.18
2022-12-11T10:57:16.023Z,-2.22
2022-12-11T10:59:50.634Z,-2.40
2022-12-11T11:02:25.570Z,-2.30
2022-12-11T11:04:53.791Z,-2.23
2022-12-11T11:07:30.375Z,-2.21
2022-12-11T11:10:12.157Z,-1.99
2022-12-11T11:12:48.319Z,-1.87
2022-12-11T11:15:17.766Z,-1.84
2022-12-11T11:17:54.514Z,-1.96
2022-12-11T11:20:25.934Z,-1.86
2022-12-11T11:22:54.801Z,-1.77
2022-12-11T11:25:24.433Z,-1.77
2022-12-11T11:28:06.381Z,-1.79
2022-12-11T11:30:39.945Z,-1.72
2022-12-11T11:33:23.955Z,-1.69
2022-12-11T11:35:57.723Z,-1.61
2022-12-11T11:38:36.123Z,-1.51
2022-12-11T11:41:19.072Z,-1.51
2022-12-11T11:43:51.210Z,-1.52
2022-12-11T11:46:36.577Z,-1.41
2022-12-11T11:49:22.459Z,-1.35
2022-12-11T11:52:08.200Z,-1.35
2022-12-11T11:54:39.902Z,-1.35
2022-12-11T11:57:35.518Z,-1.34
2022-12-11T12:00:10.863Z,-1.30
2022-12-11T12:02:37.803Z,-1.38
2022-12-11T12:05:04.817Z,-1.36
2022-12-11T12:07:34.386Z,-1.33
2022-12-11T12:10:21.495Z,-1.31
2022-12-11T12:12:51.065Z,-1.25
2022-12-11T12:15:34.525Z,-1.20
2022-12-11T12:18:16.089Z,-1.20
2022-12-11T12:21:08.762Z,-1.24
2022-12-11T12:23:53.498Z,-1.18
2022-12-11T12:26:32.925Z,-1.19
2022-12-11T12:29:20.977Z,-1.20
2022-12-11T12:32:14.128Z,-1.21
2022-12-11T12:34:52.988Z,-1.16
2022-12-11T12:37:54.218Z,-1.13
2022-12-11T12:40:32.790Z,-1.36
2022-12-11T12:43:30.170Z,-1.32
2022-12-11T12:46:10.572Z,-1.24
2022-12-11T12:48:37.480Z,-1.32
2022-12-11T12:51:04.774Z,-1.26
2022-12-11T12:53:34.452Z,-1.25
2022-12-11T12:56:02.603Z,-1.54
2022-12-11T12:58:49.685Z,-1.55
2022-12-11T13:01:27.463Z,-1.51
2022-12-11T13:04:01.757Z,-1.42
2022-12-11T13:06:45.999Z,-1.53
2022-12-11T13:09:19.231Z,-1.49
2022-12-11T13:11:47.331Z,-1.59
2022-12-11T13:14:13.790Z,-1.48
2022-12-11T13:16:43.147Z,-1.41
2022-12-11T13:19:27.942Z,-1.38
2022-12-11T13:22:02.801Z,-1.71
2022-12-11T13:24:32.146Z,-1.50
2022-12-11T13:27:10.281Z,-1.49
2022-12-11T13:29:39.563Z,-1.68
2022-12-11T13:32:09.190Z,-1.52
2022-12-11T13:34:45.266Z,-1.46
2022-12-11T13:37:36.000Z,-1.39
2022-12-11T13:40:07.094Z,-1.53
2022-12-11T13:42:36.084Z,-1.62
2022-12-11T13:45:04.285Z,-1.88
2022-12-11T13:47:32.952Z,-1.67
2022-12-11T13:50:23.261Z,-1.61
2022-12-11T13:52:55.090Z,-1.80
2022-12-11T13:55:25.688Z,-1.84
2022-12-11T13:57:52.301Z,-1.66
2022-12-11T14:00:39.317Z,-1.83
2022-12-11T14:03:09.859Z,-1.86
2022-12-11T14:05:36.522Z,-1.79
2022-12-11T14:08:09.627Z,-1.68
2022-12-11T14:10:37.124Z,-1.70
2022-12-11T14:13:07.468Z,-1.83
2022-12-11T14:15:36.335Z,-1.83
2022-12-11T14:18:04.957Z,-1.79
2022-12-11T14:20:34.172Z,-1.70
2022-12-11T14:23:18.443Z,-1.75
2022-12-11T14:26:01.439Z,-1.81
2022-12-11T14:28:30.649Z,-2.05
2022-12-11T14:30:59.791Z,-2.02
2022-12-11T14:33:32.571Z,-2.03
2022-12-11T14:36:00.571Z,-2.09
2022-12-11T14:38:33.074Z,-2.23
2022-12-11T14:41:05.338Z,-2.14
2022-12-11T14:43:39.526Z,-2.04
2022-12-11T14:46:15.558Z,-2.13
2022-12-11T14:48:53.862Z,-2.23
2022-12-11T14:51:28.692Z,-2.34
2022-12-11T14:53:55.549Z,-2.24
2022-12-11T14:56:25.665Z,-2.28
2022-12-11T14:58:59.231Z,-2.32
2022-12-11T15:01:29.556Z,-2.24
2022-12-11T15:04:15.458Z,-2.21
2022-12-11T15:06:48.375Z,-2.17
2022-12-11T15:09:21.953Z,-2.17
2022-12-11T15:11:51.182Z,-2.09
2022-12-11T15:14:21.023Z,-2.04
2022-12-11T15:16:49.267Z,-2.05
2022-12-11T15:19:30.732Z,-2.02
2022-12-11T15:22:06.690Z,-2.04
2022-12-11T15:24:40.686Z,-2.00
2022-12-11T15:27:29.660Z,-2.05
2022-12-11T15:29:56.862Z,-2.04
2022-12-11T15:32:23.556Z,-2.06
2022-12-11T15:35:00.051Z,-2.12
2022-12-11T15:37:36.589Z,-2.08
2022-12-11T15:40:05.360Z,-2.10
2022-12-11T15:42:39.781Z,-2.22
2022-12-11T15:45:09.486Z,-2.32
2022-12-11T15:47:36.210Z,-2.32
2022-12-11T15:50:12.586Z,-2.21
2022-12-11T15:52:39.315Z,-2.12
2022-12-11T15:55:06.123Z,-2.05
2022-12-11T15:57:32.710Z,-2.16
2022-12-11T15:59:59.355Z,-2.09
2022-12-11T16:02:27.933Z,-2.05
2022-12-11T16:04:54.813Z,-2.10
2022-12-11T16:07:24.860Z,-2.09
2022-12-11T16:09:52.682Z,-2.05
2022-12-11T16:12:19.733Z,-2.08
2022-12-11T16:14:46.714Z,-2.10
2022-12-11T16:17:14.980Z,-2.06
2022-12-11T16:19:43.094Z,-2.09
2022-12-11T16:22:10.733Z,-2.09
2022-12-11T16:24:37.859Z,-2.12
2022-12-11T16:27:05.804Z,-2.14
2022-12-11T16:29:36.747Z,-2.11
2022-12-11T16:32:04.058Z,-2.11
2022-12-11T16:34:30.696Z,-2.13
2022-12-11T16:36:58.292Z,-2.14
2022-12-11T16:39:25.059Z,-2.14
2022-12-11T16:41:51.670Z,-2.11
2022-12-11T16:44:25.599Z,-2.16
2022-12-11T16:46:53.762Z,-2.12
2022-12-11T16:49:21.106Z,-2.15
2022-12-11T16:51:49.535Z,-2.08
2022-12-11T16:54:16.679Z,-2.26
2022-12-11T16:56:43.788Z,-2.23
2022-12-11T16:59:11.034Z,-2.17
2022-12-11T17:01:37.707Z,-2.19
2022-12-11T17:04:04.366Z,-2.24
2022-12-11T17:06:31.022Z,-2.22
2022-12-11T17:08:57.850Z,-2.16
2022-12-11T17:11:27.743Z,-2.15
2022-12-11T17:13:55.641Z,-2.11
2022-12-11T17:16:24.943Z,-2.09
2022-12-11T17:18:52.212Z,-2.13
2022-12-11T17:21:20.194Z,-2.10
2022-12-11T17:23:46.779Z,-2.07
2022-12-11T17:26:13.393Z,-2.04
2022-12-11T17:28:40.201Z,-2.01
2022-12-11T17:31:09.854Z,-1.97
2022-12-11T17:33:36.502Z,-1.95
2022-12-11T17:36:05.367Z,-1.97
2022-12-11T17:38:32.780Z,-2.11
2022-12-11T17:40:59.647Z,-2.06
2022-12-11T17:43:26.421Z,-2.13
2022-12-11T17:45:53.251Z,-2.11
2022-12-11T17:48:22.511Z,-2.10
2022-12-11T17:50:50.638Z,-2.07
2022-12-11T17:53:18.960Z,-2.03
2022-12-11T17:55:46.632Z,-1.99
2022-12-11T17:58:18.541Z,-1.95
2022-12-11T18:00:47.328Z,-1.94
2022-12-11T18:03:14.612Z,-1.94
2022-12-11T18:05:47.029Z,-1.93
2022-12-11T18:08:15.015Z,-1.92
2022-12-11T18:10:42.749Z,-1.91
2022-12-11T18:13:09.973Z,-1.90
2022-12-11T18:15:36.944Z,-1.90
2022-12-11T18:18:04.423Z,-1.90
2022-12-11T18:20:32.739Z,-1.89
2022-12-11T18:22:59.988Z,-1.90
2022-12-11T18:25:26.839Z,-1.90
2022-12-11T18:27:56.868Z,-1.89
2022-12-11T18:30:25.131Z,-1.92
2022-12-11T18:32:52.156Z,-1.93
2022-12-11T18:35:19.457Z,-1.93
2022-12-11T18:37:46.274Z,-1.92
2022-12-11T18:40:12.895Z,-1.95
2022-12-11T18:42:39.739Z,-2.04
2022-12-11T18:45:07.042Z,-2.16
2022-12-11T18:47:33.892Z,-2.24
2022-12-11T18:50:07.102Z,-2.40
2022-12-11T18:52:34.512Z,-2.33
2022-12-11T18:55:01.120Z,-2.33
2022-12-11T18:57:27.714Z,-2.28
2022-12-11T18:59:54.648Z,-2.24
2022-12-11T19:02:21.919Z,-2.19
2022-12-11T19:04:48.623Z,-2.29
2022-12-11T19:07:15.215Z,-2.25
2022-12-11T19:09:46.361Z,-2.24
2022-12-11T19:12:14.295Z,-2.21
2022-12-11T19:14:40.939Z,-2.19
2022-12-11T19:17:07.680Z,-2.23
2022-12-11T19:19:34.262Z,-2.27
2022-12-11T19:22:00.826Z,-2.27
2022-12-11T19:24:27.464Z,-2.28
2022-12-11T19:26:54.054Z,-2.22
2022-12-11T19:29:26.665Z,-2.18
2022-12-11T19:31:55.187Z,-2.13
2022-12-11T19:34:22.155Z,-2.18
2022-12-11T19:36:48.893Z,-2.22
2022-12-11T19:39:15.718Z,-2.23
2022-12-11T19:41:42.357Z,-2.19
2022-12-11T19:44:09.626Z,-2.19
2022-12-11T19:46:36.281Z,-2.20
2022-12-11T19:49:02.943Z,-2.17
2022-12-11T19:51:41.362Z,-2.20
2022-12-11T19:54:10.090Z,-2.18
2022-12-11T19:56:36.874Z,-2.22
2022-12-11T19:59:06.764Z,-2.22
2022-12-11T20:01:35.850Z,-2.23
2022-12-11T20:04:10.329Z,-2.18
2022-12-11T20:06:39.794Z,-2.17
2022-12-11T20:09:10.904Z,-2.15
2022-12-11T20:11:40.563Z,-2.17
2022-12-11T20:14:07.402Z,-2.18
2022-12-11T20:17:08.654Z,-2.19
2022-12-11T20:19:20.814Z,-2.19
2022-12-11T20:21:47.395Z,-2.23
2022-12-11T20:24:13.980Z,-2.25
2022-12-11T20:26:40.804Z,-2.25
2022-12-11T20:29:08.555Z,-2.23
2022-12-11T20:31:36.501Z,-2.27
2022-12-11T20:34:03.908Z,-2.24
2022-12-11T20:36:30.775Z,-2.22
2022-12-11T20:38:57.615Z,-2.21
2022-12-11T20:41:25.462Z,-2.20
2022-12-11T20:43:54.135Z,-2.17
2022-12-11T20:46:23.215Z,-2.14
2022-12-11T20:48:50.716Z,-2.12
2022-12-11T20:51:25.811Z,-2.11
2022-12-11T20:53:58.698Z,-2.10
2022-12-11T20:56:29.079Z,-2.13
2022-12-11T20:58:56.587Z,-2.15
2022-12-11T21:01:26.011Z,-2.14
2022-12-11T21:03:53.597Z,-2.18
2022-12-11T21:06:25.805Z,-2.14
2022-12-11T21:08:53.286Z,-2.13
2022-12-11T21:11:20.935Z,-2.10
2022-12-11T21:13:47.541Z,-2.08
2022-12-11T21:16:14.304Z,-2.12
2022-12-11T21:18:41.635Z,-2.17
2022-12-11T21:21:08.317Z,-2.18
2022-12-11T21:23:34.926Z,-2.23
2022-12-11T21:26:01.691Z,-2.25
2022-12-11T21:28:33.572Z,-2.25
2022-12-11T21:31:04.763Z,-2.27
2022-12-11T21:33:31.459Z,-2.29
2022-12-11T21:36:00.079Z,-2.28
2022-12-11T21:38:29.308Z,-2.25
2022-12-11T21:40:56.347Z,-2.21
2022-12-11T21:43:23.356Z,-2.20
2022-12-11T21:46:00.864Z,-2.17
2022-12-11T21:48:28.603Z,-2.19
2022-12-11T21:50:55.292Z,-2.20
2022-12-11T21:53:21.836Z,-2.22
2022-12-11T21:55:48.494Z,-2.34
2022-12-11T21:58:15.831Z,-2.36
2022-12-11T22:00:42.518Z,-2.39
2022-12-11T22:03:09.147Z,-2.46
2022-12-11T22:05:35.703Z,-2.49
2022-12-11T22:08:02.375Z,-2.46
2022-12-11T22:10:29.559Z,-2.45
2022-12-11T22:12:56.171Z,-2.45
2022-12-11T22:15:23.131Z,-2.45
2022-12-11T22:17:50.152Z,-2.43
2022-12-11T22:20:16.818Z,-2.40
2022-12-11T22:22:43.366Z,-2.36
2022-12-11T22:25:10.370Z,-2.33
2022-12-11T22:27:37.277Z,-2.30
2022-12-11T22:30:04.587Z,-2.34
2022-12-11T22:32:31.115Z,-2.29
2022-12-11T22:34:57.931Z,-2.27
2022-12-11T22:37:24.837Z,-2.26
2022-12-11T22:39:51.456Z,-2.25
2022-12-11T22:42:18.131Z,-2.25
2022-12-11T22:44:44.688Z,-2.24
2022-12-11T22:47:11.407Z,-2.21
2022-12-11T22:49:38.057Z,-2.18
2022-12-11T22:52:04.871Z,-2.15
2022-12-11T22:54:31.426Z,-2.17
2022-12-11T22:56:58.067Z,-2.13
2022-12-11T22:59:24.696Z,-2.10
2022-12-11T23:01:51.340Z,-2.09
2022-12-11T23:04:17.932Z,-2.07
2022-12-11T23:06:44.461Z,-2.07
2022-12-11T23:09:11.555Z,-2.09
2022-12-11T23:11:39.161Z,-2.19
2022-12-11T23:14:07.918Z,-2.22
2022-12-11T23:16:34.882Z,-2.27
2022-12-11T23:19:01.517Z,-2.32
2022-12-11T23:21:28.944Z,-2.36
2022-12-11T23:23:55.886Z,-2.38
2022-12-11T23:26:22.982Z,-2.43
2022-12-11T23:28:49.951Z,-2.47
2022-12-11T23:31:17.058Z,-2.46
2022-12-11T23:33:43.717Z,-2.45
2022-12-11T23:36:11.154Z,-2.46
2022-12-11T23:38:38.178Z,-2.43
2022-12-11T23:41:06.199Z,-2.41
2022-12-11T23:43:35.307Z,-2.40
2022-12-11T23:46:07.611Z,-2.39
2022-12-11T23:48:34.367Z,-2.38
2022-12-11T23:51:02.181Z,-2.44
2022-12-11T23:53:29.071Z,-2.48
2022-12-11T23:55:55.688Z,-2.55
2022-12-11T23:58:22.398Z,-2.55
